Time;durP1;ratioP1;P1;durP2;ratioP2;P2;SDS_P1;SDS_P2;PMS_P1;PMS_P2;Temp;Humidity;BMP_temperature;BMP_pressure;BME280_temperature;BME280_humidity;BME280_pressure;Samples;Min_cycle;Max_cycle;Signal;HPM_P1;HPM_P2
2022/01/08 00:00:14;;;;;;;17.38;10.60;;;;;;;0.85;88.49;101009.31;5009796;28;20029;-72
2022/01/08 00:02:41;;;;;;;15.77;10.50;;;;;;;0.81;88.38;100997.56;5009572;28;20435;-74
2022/01/08 00:05:07;;;;;;;16.88;10.45;;;;;;;0.84;88.38;101006.81;4997812;28;20030;-66
2022/01/08 00:07:33;;;;;;;16.83;11.25;;;;;;;0.82;88.27;101003.50;5010549;28;20381;-66
2022/01/08 00:09:58;;;;;;;16.27;11.55;;;;;;;0.80;88.04;101003.53;5008849;28;20453;-66
2022/01/08 00:12:24;;;;;;;15.60;10.93;;;;;;;0.79;88.60;101009.53;5006298;28;20045;-66
2022/01/08 00:14:49;;;;;;;19.52;10.88;;;;;;;0.78;88.08;101005.34;5012429;28;20032;-66
2022/01/08 00:17:15;;;;;;;19.65;11.65;;;;;;;0.76;88.71;101002.84;5010794;28;20025;-65
2022/01/08 00:19:40;;;;;;;15.45;11.32;;;;;;;0.78;88.24;101020.66;5012085;28;20037;-65
2022/01/08 00:22:06;;;;;;;17.60;10.73;;;;;;;0.77;88.47;101024.09;5012186;28;20022;-65
2022/01/08 00:24:32;;;;;;;16.05;10.52;;;;;;;0.76;88.14;101018.16;5012053;28;20137;-65
2022/01/08 00:26:57;;;;;;;15.73;11.07;;;;;;;0.76;88.05;101022.44;5011861;28;20057;-65
2022/01/08 00:29:22;;;;;;;15.60;10.73;;;;;;;0.74;88.42;101022.47;5000814;28;20059;-65
2022/01/08 00:31:48;;;;;;;16.65;10.73;;;;;;;0.74;88.35;101029.31;5010084;28;20029;-65
2022/01/08 00:34:13;;;;;;;18.25;11.32;;;;;;;0.73;88.29;101032.75;5011506;28;20052;-66
2022/01/08 00:36:39;;;;;;;17.77;10.93;;;;;;;0.72;88.38;101028.53;4993694;28;20026;-65
2022/01/08 00:39:04;;;;;;;17.20;11.05;;;;;;;0.72;88.29;101033.66;5010753;28;20033;-65
2022/01/08 00:41:30;;;;;;;15.27;10.65;;;;;;;0.67;88.01;101030.44;5011266;28;20024;-65
2022/01/08 00:43:56;;;;;;;16.25;10.70;;;;;;;0.67;88.16;101025.31;5011432;28;20029;-65
2022/01/08 00:46:21;;;;;;;16.63;10.50;;;;;;;0.66;88.05;101029.59;4993758;28;20041;-65
2022/01/08 00:48:47;;;;;;;15.90;10.45;;;;;;;0.65;88.09;101042.44;5011397;28;20025;-65
2022/01/08 00:51:12;;;;;;;16.15;9.90;;;;;;;0.67;88.34;101048.28;5009742;28;20109;-65
2022/01/08 00:53:38;;;;;;;15.38;9.68;;;;;;;0.63;88.14;101049.28;5011736;28;20037;-65
2022/01/08 00:56:04;;;;;;;14.95;9.75;;;;;;;0.64;88.17;101050.97;5010878;28;20065;-70
2022/01/08 00:58:30;;;;;;;15.52;9.90;;;;;;;0.63;88.04;101049.28;4993272;28;20022;-65
2022/01/08 01:00:55;;;;;;;13.90;9.07;;;;;;;0.66;88.22;101057.69;5010787;28;20053;-65
2022/01/08 01:03:21;;;;;;;16.17;9.75;;;;;;;0.65;88.15;101047.53;4997943;28;20049;-66
2022/01/08 01:05:46;;;;;;;17.85;10.23;;;;;;;0.67;88.23;101061.06;5009710;28;20493;-66
2022/01/08 01:08:11;;;;;;;15.52;9.98;;;;;;;0.65;87.92;101042.44;5011749;28;20034;-66
2022/01/08 01:10:37;;;;;;;13.65;9.75;;;;;;;0.66;88.11;101044.91;5009937;28;20474;-66
2022/01/08 01:13:03;;;;;;;14.27;9.68;;;;;;;0.62;88.26;101037.41;5009329;28;20433;-66
2022/01/08 01:15:28;;;;;;;16.25;9.25;;;;;;;0.64;88.22;101045.88;5010871;28;20030;-66
2022/01/08 01:17:53;;;;;;;14.60;8.95;;;;;;;0.63;87.99;101044.19;5010926;28;20104;-66
2022/01/08 01:20:20;;;;;;;15.30;9.35;;;;;;;0.60;88.00;101040.03;5009662;28;20486;-66
2022/01/08 01:22:57;;;;;;;14.70;9.13;;;;;;;0.61;88.25;101035.75;5009346;28;20030;-66
2022/01/08 01:25:35;;;;;;;14.88;8.80;;;;;;;0.60;87.89;101036.66;5010821;28;20104;-66
2022/01/08 01:28:26;;;;;;;12.63;8.25;;;;;;;0.60;88.23;101044.31;5009262;28;20025;-66
2022/01/08 01:47:01;;;;;;;14.35;9.13;;;;;;;0.51;87.96;101066.72;5010656;28;20052;-66
2022/01/08 01:49:26;;;;;;;15.38;9.25;;;;;;;0.47;88.07;101060.06;5010692;28;20026;-67
2022/01/08 01:51:52;;;;;;;17.70;9.55;;;;;;;0.48;88.30;101061.72;5010313;28;20026;-66
2022/01/08 01:54:17;;;;;;;15.52;10.00;;;;;;;0.48;87.87;101061.72;5009273;28;20382;-66
2022/01/08 01:56:42;;;;;;;19.65;10.65;;;;;;;0.45;88.14;101056.72;5010493;28;20389;-66
2022/01/08 01:59:08;;;;;;;15.05;9.40;;;;;;;0.45;88.10;101054.16;5008201;28;20026;-66
2022/01/08 02:01:34;;;;;;;15.50;9.93;;;;;;;0.44;88.04;101051.69;5009537;28;20100;-66
2022/01/08 02:03:59;;;;;;;15.30;10.20;;;;;;;0.44;87.95;101049.97;5010218;28;20045;-66
2022/01/08 02:06:24;;;;;;;18.45;10.00;;;;;;;0.41;87.88;101050.09;5010125;28;20034;-65
2022/01/08 02:08:50;;;;;;;15.18;9.95;;;;;;;0.41;87.93;101050.09;5010458;28;20022;-66
2022/01/08 02:11:18;;;;;;;14.80;10.55;;;;;;;0.38;87.92;101050.19;5012554;28;20048;-66
2022/01/08 02:13:43;;;;;;;16.07;10.70;;;;;;;0.41;88.03;101055.19;5008963;28;20046;-66
2022/01/08 02:16:16;;;;;;;18.05;10.82;;;;;;;0.38;87.85;101046.81;5013281;28;20037;-66
2022/01/08 02:18:43;;;;;;;17.52;10.30;;;;;;;0.37;88.09;101052.81;4996836;28;20029;-66
2022/01/08 02:21:10;;;;;;;20.55;11.10;;;;;;;0.38;87.97;101060.38;5014296;28;20080;-66
2022/01/08 02:23:35;;;;;;;15.13;10.90;;;;;;;0.37;88.09;101063.00;5014020;28;20037;-66
2022/01/08 02:26:07;;;;;;;16.15;10.93;;;;;;;0.35;88.11;101055.41;5014024;28;20394;-66
2022/01/08 02:28:34;;;;;;;19.88;12.25;;;;;;;0.32;88.28;101059.78;5013748;28;20033;-66
2022/01/08 02:30:59;;;;;;;18.77;11.95;;;;;;;0.30;88.48;101052.19;5013631;28;20030;-66
2022/01/08 02:33:28;;;;;;;19.80;12.27;;;;;;;0.32;88.25;101060.59;5005511;28;20048;-67
2022/01/08 02:35:54;;;;;;;;;;;;;;;0.39;88.18;101059.50;5014135;28;20105;-66
2022/01/08 02:38:20;;;;;;;18.38;12.40;;;;;;;0.31;88.25;101064.06;5003999;28;20013;-66
2022/01/08 02:40:57;;;;;;;19.58;13.48;;;;;;;0.30;88.30;101071.75;5012022;28;20057;-66
2022/01/08 02:43:23;;;;;;;19.20;13.30;;;;;;;0.28;88.10;101059.03;5013770;28;20110;-66
2022/01/08 02:45:49;;;;;;;19.00;13.27;;;;;;;0.27;88.25;101062.50;5011154;28;20034;-66
2022/01/08 02:48:15;;;;;;;20.50;13.57;;;;;;;0.24;88.41;101070.25;5013244;28;20033;-66
2022/01/08 02:50:40;;;;;;;19.20;14.63;;;;;;;0.21;88.47;101067.81;5012917;28;20025;-66
2022/01/08 02:53:06;;;;;;;19.30;13.85;;;;;;;0.23;88.31;101071.13;5011342;28;20117;-66
2022/01/08 02:55:31;;;;;;;20.95;14.48;;;;;;;0.22;88.50;101059.25;5004673;28;20355;-67
2022/01/08 02:57:57;;;;;;;19.67;13.73;;;;;;;0.23;88.51;101077.09;4994640;28;20118;-66
2022/01/08 03:00:22;;;;;;;20.05;14.35;;;;;;;0.22;88.41;101064.34;4997599;28;20463;-66
2022/01/08 03:02:50;;;;;;;22.55;14.55;;;;;;;0.24;88.58;101072.81;5012524;28;20045;-66
2022/01/08 03:05:16;;;;;;;18.92;14.70;;;;;;;0.24;88.61;101072.81;4994898;28;20026;-66
2022/01/08 03:07:43;;;;;;;22.40;13.85;;;;;;;0.23;88.49;101071.13;5020132;28;20036;-66
2022/01/08 03:10:11;;;;;;;19.85;14.30;;;;;;;0.19;88.41;101062.75;5031409;28;20045;-66
2022/01/08 03:12:40;;;;;;;20.73;14.52;;;;;;;0.20;88.74;101066.16;5006003;28;20071;-66
2022/01/08 03:15:11;;;;;;;18.45;13.73;;;;;;;0.21;88.73;101067.81;5025454;28;20033;-66
2022/01/08 03:17:36;;;;;;;25.10;15.25;;;;;;;0.18;88.89;101067.94;5025687;28;20022;-67
2022/01/08 03:20:06;;;;;;;18.17;13.98;;;;;;;0.18;88.54;101058.56;5029388;28;20017;-66
2022/01/08 03:22:32;;;;;;;21.73;13.80;;;;;;;0.14;88.45;101056.16;5008119;28;20156;-67
2022/01/08 03:24:57;;;;;;;21.42;13.70;;;;;;;0.17;88.71;101061.13;5013532;28;20136;-66
2022/01/08 03:27:23;;;;;;;20.05;13.95;;;;;;;0.17;88.74;101064.53;5017513;28;20454;-66
2022/01/08 03:29:48;;;;;;;19.00;13.05;;;;;;;0.18;88.77;101070.47;5024027;28;20033;-66
2022/01/08 03:32:14;;;;;;;21.60;13.45;;;;;;;0.18;88.75;101062.81;5031985;28;20076;-66
2022/01/08 03:34:40;;;;;;;21.50;14.23;;;;;;;0.16;88.82;101067.13;5015550;28;20426;-66
2022/01/08 03:37:05;;;;;;;19.05;14.27;;;;;;;0.17;88.64;101071.34;5014790;28;20034;-66
2022/01/08 03:39:30;;;;;;;21.48;14.13;;;;;;;0.17;88.69;101071.34;5014825;28;20033;-66
2022/01/08 03:41:56;;;;;;;21.33;14.38;;;;;;;0.18;88.63;101070.47;5006409;28;20037;-66
2022/01/08 03:44:21;;;;;;;21.45;14.27;;;;;;;0.17;88.73;101071.34;5014641;28;20018;-66
2022/01/08 03:46:47;;;;;;;19.58;13.65;;;;;;;0.18;88.52;101083.22;5013557;28;20087;-66
2022/01/08 03:49:25;;;;;;;20.27;13.68;;;;;;;0.17;88.58;101076.44;5007977;28;20033;-66
2022/01/08 03:51:55;;;;;;;18.50;13.27;;;;;;;0.16;88.50;101084.97;5015030;28;20040;-67
2022/01/08 03:54:22;;;;;;;20.20;13.98;;;;;;;0.15;88.27;101068.03;5031379;28;20056;-67
2022/01/08 03:56:48;;;;;;;24.08;13.68;;;;;;;0.15;88.39;101062.91;4990700;28;20021;-66
2022/01/08 03:59:13;;;;;;;23.23;13.38;;;;;;;0.13;88.38;101069.81;5006308;28;20117;-66
2022/01/08 04:01:39;;;;;;;19.80;13.18;;;;;;;0.15;88.18;101083.31;5011042;28;20029;-66
2022/01/08 04:04:05;;;;;;;19.52;12.95;;;;;;;0.15;88.39;101079.06;5010318;28;20836;-66
2022/01/08 04:06:30;;;;;;;17.63;12.73;;;;;;;0.14;88.62;101087.59;5006314;28;20047;-66
2022/01/08 04:08:57;;;;;;;21.83;13.13;;;;;;;0.13;88.30;101080.84;5012046;28;20077;-66
2022/01/08 04:11:26;;;;;;;19.45;13.38;;;;;;;0.12;88.52;101093.63;5011954;28;20034;-66
2022/01/08 04:13:54;;;;;;;23.55;12.52;;;;;;;0.12;88.40;101091.09;4999296;28;20041;-66
2022/01/08 04:16:24;;;;;;;20.35;13.38;;;;;;;0.09;88.31;101086.09;5012283;28;20459;-66
2022/01/08 04:18:50;;;;;;;21.25;12.75;;;;;;;0.09;88.30;101093.72;5002102;28;20034;-66
2022/01/08 04:24:06;;;;;;;19.88;12.52;;;;;;;0.06;88.47;101098.91;5011877;28;20038;-66
2022/01/08 04:26:31;;;;;;;20.38;12.48;;;;;;;0.05;88.28;101102.38;5012092;28;20026;-66
2022/01/08 04:28:57;;;;;;;22.00;12.63;;;;;;;0.03;88.49;101099.03;5011782;28;20034;-66
2022/01/08 04:31:23;;;;;;;21.65;12.35;;;;;;;0.02;88.58;101103.31;5008322;28;20044;-66
2022/01/08 04:33:49;;;;;;;19.00;12.07;;;;;;;-0.01;88.53;101109.31;5006431;28;20026;-66
2022/01/08 04:36:15;;;;;;;23.45;12.48;;;;;;;-0.04;88.84;101104.34;4993842;28;20029;-66
2022/01/08 04:38:40;;;;;;;20.77;12.48;;;;;;;-0.01;88.78;101109.31;5011670;28;20490;-66
2022/01/08 04:41:06;;;;;;;19.73;12.80;;;;;;;-0.03;88.64;101108.56;5011664;28;20036;-66
2022/01/08 04:43:33;;;;;;;21.25;12.55;;;;;;;-0.05;89.00;101106.94;5010912;28;20079;-66
2022/01/08 04:45:58;;;;;;;19.38;12.02;;;;;;;-0.03;88.84;101111.09;5004459;28;20022;-66
2022/01/08 04:48:24;;;;;;;19.35;12.57;;;;;;;-0.04;88.87;101106.06;5011621;28;20037;-66
2022/01/08 04:50:49;;;;;;;21.17;12.40;;;;;;;-0.04;88.89;101103.50;4993219;28;20033;-66
2022/01/08 04:53:14;;;;;;;16.70;11.82;;;;;;;-0.05;88.86;101117.97;5011615;28;20045;-66
2022/01/08 04:55:40;;;;;;;19.25;11.65;;;;;;;-0.04;88.76;101114.53;5009076;28;20033;-66
2022/01/08 04:58:06;;;;;;;17.08;11.52;;;;;;;-0.07;88.99;101122.28;5009368;28;20466;-66
2022/01/08 05:00:32;;;;;;;21.42;12.43;;;;;;;-0.07;89.00;101122.28;4991163;28;20026;-66
2022/01/08 05:02:59;;;;;;;19.30;12.32;;;;;;;-0.07;88.85;101124.81;5015589;28;20052;-65
2022/01/08 05:05:24;;;;;;;18.27;12.60;;;;;;;-0.09;89.14;101121.50;5005317;28;20041;-66
2022/01/08 05:07:50;;;;;;;19.17;12.40;;;;;;;-0.06;88.72;101126.53;5018899;28;20077;-65
2022/01/08 05:10:15;;;;;;;19.17;11.10;;;;;;;-0.06;89.18;101123.09;5003439;28;22103;-66
2022/01/08 05:12:41;;;;;;;19.83;11.85;;;;;;;-0.06;89.22;101125.66;5019412;28;20069;-66
2022/01/08 05:15:07;;;;;;;19.10;11.52;;;;;;;-0.05;89.33;101123.09;5030883;28;20037;-66
2022/01/08 05:17:35;;;;;;;21.58;12.65;;;;;;;-0.06;89.22;101121.41;5001305;28;20029;-66
2022/01/08 05:20:04;;;;;;;21.27;13.00;;;;;;;-0.06;89.39;101123.97;5010251;28;20061;-66
2022/01/08 05:22:41;;;;;;;20.02;11.82;;;;;;;-0.06;89.68;101123.97;5019553;28;20029;-66
2022/01/08 05:25:07;;;;;;;20.10;11.88;;;;;;;-0.07;89.38;101122.28;5014697;28;20364;-65
2022/01/08 05:27:33;;;;;;;19.98;11.73;;;;;;;-0.06;89.57;101123.97;4994327;28;20038;-65
2022/01/08 05:29:58;;;;;;;18.60;12.10;;;;;;;-0.08;89.37;101117.25;5014041;28;20071;-65
2022/01/08 05:32:23;;;;;;;14.95;11.80;;;;;;;-0.07;89.58;101119.72;5009772;28;20406;-66
2022/01/08 05:34:51;;;;;;;20.88;12.60;;;;;;;-0.09;89.72;101121.50;5016187;28;20110;-66
2022/01/08 05:37:18;;;;;;;20.50;11.27;;;;;;;-0.10;89.78;101135.16;5007589;28;20113;-65
2022/01/08 05:39:44;;;;;;;18.98;11.75;;;;;;;-0.08;89.72;101130.00;5007749;28;20025;-65
2022/01/08 05:42:09;;;;;;;18.05;11.45;;;;;;;-0.08;89.62;101122.34;5007970;28;20037;-68
2022/01/08 05:44:34;;;;;;;17.95;12.25;;;;;;;-0.06;90.28;101116.31;5004238;28;20033;-66
2022/01/08 05:47:01;;;;;;;19.63;11.82;;;;;;;-0.06;90.15;101126.53;5012091;28;20045;-65
2022/01/08 05:49:27;;;;;;;18.48;12.02;;;;;;;-0.05;90.07;101128.19;5000419;28;20374;-66
2022/01/08 05:51:52;;;;;;;15.85;12.13;;;;;;;-0.02;90.63;101133.16;5011447;28;20048;-66
2022/01/08 05:54:17;;;;;;;16.95;11.35;;;;;;;-0.01;90.19;101134.81;5020113;28;20048;-66
2022/01/08 05:56:43;;;;;;;21.55;11.55;;;;;;;0.01;90.38;101144.16;4993545;28;20045;-65
2022/01/08 05:59:08;;;;;;;19.08;11.15;;;;;;;0.03;90.08;101144.94;5008028;28;20033;-67
2022/01/08 06:01:34;;;;;;;17.58;11.40;;;;;;;0.04;90.20;101146.59;5006771;28;20025;-65
2022/01/08 06:04:01;;;;;;;17.55;11.13;;;;;;;0.04;89.96;101147.44;5009953;28;20038;-65
2022/01/08 06:06:26;;;;;;;17.02;11.65;;;;;;;0.07;89.99;101154.16;5005712;28;20104;-66
2022/01/08 06:08:51;;;;;;;17.58;11.50;;;;;;;0.06;89.86;101155.03;4994402;28;20128;-65
2022/01/08 06:11:17;;;;;;;21.17;11.75;;;;;;;0.04;89.72;101156.81;5018037;28;20037;-65
2022/01/08 06:13:42;;;;;;;20.27;11.55;;;;;;;0.09;90.16;101160.03;5015115;28;20051;-65
2022/01/08 06:16:07;;;;;;;21.00;12.82;;;;;;;0.06;90.12;101155.03;5011103;28;20036;-65
2022/01/08 06:18:33;;;;;;;17.02;12.32;;;;;;;0.06;90.04;101165.22;5009695;28;20034;-65
2022/01/08 06:20:59;;;;;;;19.48;11.82;;;;;;;0.05;90.12;101168.66;5021189;28;20017;-65
2022/01/08 06:23:25;;;;;;;19.67;12.82;;;;;;;0.04;90.31;101165.28;4992568;28;20034;-66
2022/01/08 06:25:51;;;;;;;18.65;13.23;;;;;;;0.04;90.21;101167.84;5016690;28;20033;-65
2022/01/08 06:28:17;;;;;;;17.95;12.30;;;;;;;0.03;90.06;101162.78;5010549;28;20092;-65
2022/01/08 06:30:42;;;;;;;21.52;12.10;;;;;;;0.03;89.99;101155.13;5025970;28;20029;-66
2022/01/08 06:33:07;;;;;;;19.63;12.60;;;;;;;0.04;90.31;101161.91;5022383;28;20037;-65
2022/01/08 06:35:33;;;;;;;19.58;12.82;;;;;;;0.04;90.18;101156.81;5007576;28;20430;-66
2022/01/08 06:37:58;;;;;;;19.70;12.63;;;;;;;0.03;89.95;101160.25;4988575;28;21325;-65
2022/01/08 06:40:24;;;;;;;18.13;12.18;;;;;;;0.02;90.25;101156.03;5018126;28;20528;-65
2022/01/08 06:42:49;;;;;;;19.75;12.20;;;;;;;-0.02;90.23;101143.38;5029501;28;20036;-66
2022/01/08 06:45:14;;;;;;;17.83;12.27;;;;;;;-0.02;89.96;101143.38;5019388;28;20026;-66
2022/01/08 06:47:42;;;;;;;20.33;12.30;;;;;;;-0.01;90.16;101136.53;5019957;28;20033;-67
2022/01/08 06:50:07;;;;;;;21.50;12.38;;;;;;;-0.03;90.28;101136.59;5001308;28;20033;-66
2022/01/08 06:52:33;;;;;;;16.85;11.82;;;;;;;-0.01;90.20;101137.38;5017002;28;20045;-66
2022/01/08 06:54:59;;;;;;;17.40;11.70;;;;;;;-0.03;90.09;101131.50;5014431;28;20474;-66
2022/01/08 06:57:24;;;;;;;18.35;11.95;;;;;;;-0.01;90.05;101134.00;4992631;28;20482;-67
2022/01/08 06:59:50;;;;;;;18.00;11.30;;;;;;;-0.04;89.78;101134.94;5005679;28;20614;-66
2022/01/08 07:02:15;;;;;;;19.15;12.02;;;;;;;-0.03;90.30;101141.69;5022309;28;20026;-66
2022/01/08 07:04:40;;;;;;;20.23;11.70;;;;;;;-0.06;90.17;101140.97;5027512;28;20083;-67
2022/01/08 07:07:06;;;;;;;20.38;11.35;;;;;;;-0.10;90.25;101145.34;5024331;28;20481;-67
2022/01/08 07:09:31;;;;;;;17.38;10.88;;;;;;;-0.09;90.18;101141.06;5012472;28;20359;-67
2022/01/08 07:11:56;;;;;;;16.33;11.45;;;;;;;-0.12;90.65;101136.88;5024841;28;20106;-67
2022/01/08 07:14:22;;;;;;;16.98;11.23;;;;;;;-0.11;90.01;101146.22;5012034;28;20458;-66
2022/01/08 07:16:48;;;;;;;15.45;11.10;;;;;;;-0.09;90.13;101147.00;5001579;28;20497;-67
2022/01/08 07:19:14;;;;;;;15.45;11.13;;;;;;;-0.13;90.24;101134.41;4991360;28;20176;-66
2022/01/08 07:21:39;;;;;;;17.55;11.75;;;;;;;-0.14;90.19;101137.84;5007957;28;20104;-67
2022/01/08 07:24:05;;;;;;;16.65;10.93;;;;;;;-0.12;90.09;101136.88;5016140;28;20029;-66
2022/01/08 07:26:30;;;;;;;16.35;10.32;;;;;;;-0.13;89.85;101139.50;5019385;28;20478;-66
2022/01/08 07:28:55;;;;;;;14.55;10.73;;;;;;;-0.14;90.02;101133.56;5012774;28;20034;-66
2022/01/08 07:31:22;;;;;;;18.15;10.65;;;;;;;-0.14;90.14;101138.66;5018059;28;20021;-66
2022/01/08 07:33:49;;;;;;;15.98;10.75;;;;;;;-0.14;90.22;101145.47;5026703;28;20112;-67
2022/01/08 07:36:16;;;;;;;16.50;11.43;;;;;;;-0.14;90.01;101133.56;5014309;28;20029;-66
2022/01/08 07:38:42;;;;;;;16.00;11.68;;;;;;;-0.13;90.23;101139.50;5027745;28;20030;-67
2022/01/08 07:41:07;;;;;;;16.02;11.32;;;;;;;-0.13;90.18;101140.31;5012563;28;20048;-67
2022/01/08 07:43:32;;;;;;;18.17;11.10;;;;;;;-0.14;90.42;101136.13;5024156;28;20079;-66
2022/01/08 07:45:58;;;;;;;17.83;10.95;;;;;;;-0.11;90.25;101143.69;5017144;28;20075;-66
2022/01/08 07:48:23;;;;;;;19.63;11.15;;;;;;;-0.13;90.45;101135.22;5026576;28;20124;-66
2022/01/08 07:50:48;;;;;;;16.10;11.00;;;;;;;-0.14;90.42;101133.56;5011420;28;20022;-66
2022/01/08 07:53:13;;;;;;;19.15;11.57;;;;;;;-0.14;90.40;101136.13;5018064;28;20396;-66
2022/01/08 07:55:39;;;;;;;16.30;11.68;;;;;;;-0.14;90.65;101123.38;5021342;28;20521;-66
2022/01/08 07:58:04;;;;;;;18.38;10.80;;;;;;;-0.12;90.58;101121.59;5000399;28;20038;-67
2022/01/08 08:00:30;;;;;;;17.55;11.10;;;;;;;-0.11;90.53;101125.84;5014298;28;20026;-66
2022/01/08 08:02:55;;;;;;;17.08;11.20;;;;;;;-0.15;90.76;101116.59;4999886;28;20045;-68
2022/01/08 08:05:20;;;;;;;15.95;11.25;;;;;;;-0.14;90.63;101120.81;5006558;28;20486;-66
2022/01/08 08:07:46;;;;;;;18.92;10.90;;;;;;;-0.12;91.25;101116.50;5009151;28;20033;-66
2022/01/08 08:10:17;;;;;;;16.85;10.90;;;;;;;-0.09;91.05;101121.50;5013425;28;20125;-66
2022/01/08 08:12:43;;;;;;;18.50;10.40;;;;;;;-0.07;91.03;101117.19;5012852;28;20462;-66
2022/01/08 08:15:12;;;;;;;15.48;10.65;;;;;;;-0.06;91.04;101118.88;5010181;28;20134;-66
2022/01/08 08:17:38;;;;;;;18.30;10.38;;;;;;;-0.05;91.00;101112.88;5000937;28;20104;-66
2022/01/08 08:20:04;;;;;;;15.98;10.32;;;;;;;-0.04;91.18;101114.53;4988142;28;20112;-66
2022/01/08 08:22:30;;;;;;;17.08;10.90;;;;;;;-0.01;91.14;101100.84;5010767;28;20490;-66
2022/01/08 08:24:55;;;;;;;17.40;10.10;;;;;;;0.02;91.53;101110.13;5011164;28;20033;-66
2022/01/08 08:27:21;;;;;;;19.30;10.32;;;;;;;0.02;91.04;101103.31;5010958;28;20048;-66
2022/01/08 08:29:47;;;;;;;17.02;10.52;;;;;;;-0.01;91.14;101096.56;5008098;28;20030;-66
2022/01/08 08:32:12;;;;;;;19.30;10.55;;;;;;;0.06;91.18;101098.91;5001863;28;20463;-66
2022/01/08 08:34:38;;;;;;;16.58;10.70;;;;;;;0.07;91.59;101100.63;4994307;28;20042;-66
2022/01/08 08:37:03;;;;;;;20.13;11.35;;;;;;;0.06;91.53;101093.81;4991981;28;20021;-66
2022/01/08 08:39:28;;;;;;;17.27;10.75;;;;;;;0.10;91.27;101091.13;5010972;28;20033;-67
2022/01/08 08:41:54;;;;;;;17.70;10.98;;;;;;;0.11;91.78;101091.94;5009182;28;20402;-66
2022/01/08 08:44:19;;;;;;;18.20;12.07;;;;;;;0.13;91.49;101092.75;4999004;28;20197;-67
2022/01/08 08:46:45;;;;;;;20.13;11.90;;;;;;;0.15;91.63;101083.31;4995745;28;20030;-66
2022/01/08 08:49:10;;;;;;;19.90;12.68;;;;;;;0.16;91.71;101085.81;5001895;28;20022;-66
2022/01/08 08:51:36;;;;;;;22.52;13.38;;;;;;;0.17;91.38;101072.19;4999727;28;20033;-69
2022/01/08 08:54:02;;;;;;;21.60;12.77;;;;;;;0.20;91.71;101089.09;4996038;28;20109;-66
2022/01/08 08:56:30;;;;;;;18.77;12.73;;;;;;;0.24;91.41;101090.66;4987013;28;20630;-68
2022/01/08 08:59:29;;;;;;;;;;;;;;;;;;;;;
2022/01/08 09:05:17;;;;;;;22.90;12.75;;;;;;;0.31;91.58;101084.47;5004278;28;20045;-73
2022/01/08 09:08:04;;;;;;;19.83;14.00;;;;;;;0.34;91.72;101094.53;5000763;28;20042;-68
2022/01/08 09:11:06;;;;;;;20.23;13.50;;;;;;;0.38;91.89;101091.00;5017451;28;20044;-66
2022/01/08 09:13:34;;;;;;;23.67;13.73;;;;;;;0.39;91.96;101097.78;5008842;28;20044;-66
2022/01/08 09:16:07;;;;;;;22.40;14.27;;;;;;;0.40;92.13;101089.25;5011119;28;20129;-66
2022/01/08 09:18:35;;;;;;;26.48;15.35;;;;;;;0.43;91.85;101094.22;5000393;28;20029;-66
2022/01/08 09:21:11;;;;;;;22.52;14.05;;;;;;;0.44;91.80;101084.84;5006150;28;20025;-66
2022/01/08 09:24:00;;;;;;;21.90;14.68;;;;;;;0.43;91.89;101078.09;5003637;28;20037;-67
2022/01/08 09:26:25;;;;;;;24.48;15.50;;;;;;;0.47;91.50;101075.38;5010289;28;20048;-66
2022/01/08 09:28:53;;;;;;;22.73;15.40;;;;;;;0.49;91.96;101073.59;5009545;28;20398;-66
2022/01/08 09:31:29;;;;;;;28.90;16.73;;;;;;;0.51;92.25;101071.81;5005101;28;20033;-66
2022/01/08 09:34:02;;;;;;;25.48;16.48;;;;;;;0.51;91.97;101064.16;4989820;28;20034;-66
2022/01/08 09:36:50;;;;;;;39.28;23.13;;;;;;;0.56;91.98;101058.06;5006250;28;20030;-67
2022/01/08 09:39:21;;;;;;;29.50;16.90;;;;;;;0.57;91.78;101060.56;5007087;28;20060;-67
2022/01/08 09:41:58;;;;;;;28.13;16.67;;;;;;;0.59;91.70;101052.88;5001335;28;20037;-67
2022/01/08 09:44:37;;;;;;;25.38;16.77;;;;;;;0.65;92.06;101052.63;5010435;28;20033;-66
2022/01/08 09:47:19;;;;;;;27.10;17.30;;;;;;;0.64;91.72;101050.97;5005990;28;20033;-67
2022/01/08 09:49:54;;;;;;;28.60;17.27;;;;;;;0.68;92.01;101042.28;5004944;28;20166;-67
2022/01/08 09:52:22;;;;;;;26.42;17.58;;;;;;;0.69;91.97;101041.41;4985346;28;20510;-67
2022/01/08 09:54:54;;;;;;;25.67;17.17;;;;;;;0.72;91.83;101038.75;5006894;28;20037;-67
2022/01/08 09:57:26;;;;;;;26.90;17.50;;;;;;;0.73;91.71;101025.09;5004163;28;20026;-67
2022/01/08 10:00:09;;;;;;;26.10;17.05;;;;;;;0.77;91.93;101021.53;5009986;28;20041;-68
2022/01/08 10:02:39;;;;;;;28.38;16.77;;;;;;;0.78;91.88;101013.00;5007794;28;20041;-66
2022/01/08 10:05:10;;;;;;;28.00;16.88;;;;;;;0.81;91.99;101002.69;4989516;28;20112;-67
2022/01/08 10:07:57;;;;;;;25.10;16.23;;;;;;;0.83;91.99;100988.13;5008343;28;20037;-67
2022/01/08 10:10:25;;;;;;;24.88;15.55;;;;;;;0.88;91.76;100981.13;5009769;28;20049;-66
2022/01/08 10:13:02;;;;;;;26.70;16.52;;;;;;;0.77;91.75;100955.16;5010100;28;20030;-67
2022/01/08 10:18:25;;;;;;;26.52;15.85;;;;;;;0.97;91.91;100946.72;5010444;28;20088;-67
2022/01/08 10:20:58;;;;;;;27.30;15.95;;;;;;;0.98;91.74;100938.19;5010566;28;20041;-67
2022/01/08 10:23:31;;;;;;;27.67;15.82;;;;;;;1.01;91.63;100938.03;5009831;28;20382;-67
2022/01/08 10:26:01;;;;;;;24.13;15.88;;;;;;;1.00;91.81;100934.66;5010365;28;20026;-67
2022/01/08 10:29:21;;;;;;;27.20;16.23;;;;;;;1.10;91.69;100931.75;5002515;28;20026;-67
2022/01/08 10:31:59;;;;;;;26.08;15.20;;;;;;;1.11;91.26;100933.41;4986875;28;20049;-68
2022/01/08 10:34:32;;;;;;;29.42;15.60;;;;;;;1.14;91.68;100923.03;5000487;28;20128;-67
2022/01/08 10:37:07;;;;;;;23.98;14.98;;;;;;;1.14;91.33;100917.94;5012202;28;20129;-68
2022/01/08 10:39:43;;;;;;;26.02;16.33;;;;;;;1.17;91.51;100913.53;5008994;28;20026;-67
2022/01/08 10:42:19;;;;;;;27.90;16.48;;;;;;;1.18;91.40;100902.44;5012775;28;20057;-67
2022/01/08 10:44:52;;;;;;;26.77;15.85;;;;;;;1.20;91.65;100898.06;5005820;28;20133;-68
2022/01/08 10:47:38;;;;;;;26.30;16.58;;;;;;;1.22;91.42;100895.47;5012979;28;20042;-68
2022/01/08 10:50:13;;;;;;;29.15;17.08;;;;;;;1.25;91.04;100880.00;5017096;28;20025;-68
2022/01/08 10:53:26;;;;;;;24.50;15.80;;;;;;;1.24;90.95;100873.25;5011605;28;20030;-68
2022/01/08 10:55:42;;;;;;;31.25;15.57;;;;;;;1.28;90.82;100862.84;5005165;28;20042;-69
2022/01/08 10:58:12;;;;;;;27.88;16.67;;;;;;;1.30;90.92;100855.91;5012797;28;20034;-68
2022/01/08 11:00:41;;;;;;;27.80;17.08;;;;;;;1.33;91.02;100849.88;5008019;28;20022;-68
2022/01/08 11:03:58;;;;;;;26.60;16.52;;;;;;;1.36;91.02;100846.34;4995444;28;20042;-68
2022/01/08 11:06:26;;;;;;;26.80;16.42;;;;;;;1.34;90.94;100838.75;4963921;28;20076;-68
2022/01/08 11:09:08;;;;;;;27.13;16.98;;;;;;;1.39;91.18;100836.00;5018486;28;20482;-67
2022/01/08 11:11:36;;;;;;;27.85;16.90;;;;;;;1.41;90.84;100824.81;5015982;28;20033;-67
2022/01/08 11:14:07;;;;;;;27.42;16.38;;;;;;;1.41;90.88;100818.88;5031764;28;20099;-69
2022/01/08 11:16:41;;;;;;;26.98;16.98;;;;;;;1.44;90.84;100818.75;5025965;28;20075;-67
2022/01/08 11:19:12;;;;;;;25.58;16.30;;;;;;;1.47;90.81;100798.97;5009994;28;20305;-67
2022/01/08 11:21:42;;;;;;;24.60;15.75;;;;;;;1.48;91.23;100795.53;5021368;28;20037;-68
2022/01/08 11:24:18;;;;;;;25.13;15.98;;;;;;;1.54;90.94;100800.34;5007187;28;20030;-67
2022/01/08 11:27:07;;;;;;;23.88;14.95;;;;;;;1.59;90.69;100792.50;5009999;28;20048;-67
2022/01/08 11:29:40;;;;;;;24.35;15.38;;;;;;;1.62;91.08;100783.88;5002510;28;20034;-68
2022/01/08 11:32:16;;;;;;;21.98;14.65;;;;;;;1.65;91.00;100781.97;5006040;28;20025;-68
2022/01/08 11:34:53;;;;;;;21.98;13.98;;;;;;;1.71;90.94;100778.31;4990758;28;20029;-68
2022/01/08 11:37:29;;;;;;;23.02;14.02;;;;;;;1.75;90.56;100777.28;5007179;28;20042;-70
2022/01/08 11:40:27;;;;;;;25.52;13.95;;;;;;;1.80;90.58;100770.25;5012329;28;20053;-68
2022/01/08 11:43:05;;;;;;;24.90;12.90;;;;;;;1.80;90.54;100754.91;5003474;28;20046;-67
2022/01/08 11:45:35;;;;;;;19.35;12.07;;;;;;;1.84;90.58;100746.19;4990061;28;20029;-67
2022/01/08 11:48:10;;;;;;;21.15;12.00;;;;;;;1.87;89.97;100735.81;5004939;28;20034;-68